KPKD

Park Rapids Municipal-Konshok Field Airport

Park Rapids, Minnesota, USA
METAR KPKD 142253Z AUTO 18004KT 10SM CLR M01/M04 A3011 RMK AO2 SLP217 T10111039
Observed Flight Rules
Dec-14 @ 22:53 UTC (an hour ago) Visual Flight Rules
Wind Visibility Clouds
180° at 4 knots 10 miles
  • Clear skies
Temperatures Readings
Current -1°C / 30°F
Dewpoint -4°C / 25°F
Humidity 80%
Altimeter 30.11" Hg
Pressure 1021.7 hPa
Elevation 442
METAR KPKD 142253Z AUTO 18004KT 10SM CLR M01/M04 A3011 RMK AO2 SLP217 T10111039
Observed Flight Rules
Dec-14 @ 22:53 UTC
(an hour ago)
VFR
Wind Visibility
180° at 4 knots 10 miles
Clouds
  • Clear skies
Temperature Dewpoint
-1°C / 30°F -4°C / 25°F
Humidity Altimeter Pressure
80% 30.11" Hg 1021.7 hPa